createdAt,value
2023-03-07T00:01:59.920Z,80.22
2023-03-07T00:04:26.442Z,82.57
2023-03-07T00:06:56.998Z,82.16
2023-03-07T00:09:24.652Z,81.98
2023-03-07T00:11:51.196Z,81.28
2023-03-07T00:14:19.090Z,82.77
2023-03-07T00:16:51.466Z,82.11
2023-03-07T00:19:19.001Z,82.26
2023-03-07T00:21:46.088Z,83.02
2023-03-07T00:24:12.625Z,81.90
2023-03-07T00:26:39.823Z,82.64
2023-03-07T00:29:08.340Z,82.43
2023-03-07T00:31:35.740Z,81.99
2023-03-07T00:34:03.145Z,82.62
2023-03-07T00:36:30.136Z,82.05
2023-03-07T00:38:56.959Z,82.33
2023-03-07T00:41:25.413Z,82.96
2023-03-07T00:43:52.938Z,82.56
2023-03-07T00:46:20.737Z,82.76
2023-03-07T00:48:48.130Z,81.03
2023-03-07T00:51:16.066Z,82.45
2023-03-07T00:53:43.360Z,84.28
2023-03-07T00:56:14.085Z,83.20
2023-03-07T00:58:40.596Z,82.40
2023-03-07T01:01:08.105Z,82.81
2023-03-07T01:03:35.034Z,82.59
2023-03-07T01:06:06.523Z,83.75
2023-03-07T01:08:33.747Z,84.61
2023-03-07T01:11:05.873Z,84.44
2023-03-07T01:13:33.267Z,85.39
2023-03-07T01:16:19.850Z,83.81
2023-03-07T01:18:49.981Z,84.50
2023-03-07T01:21:19.836Z,85.63
2023-03-07T01:23:46.688Z,85.44
2023-03-07T01:26:16.113Z,84.84
2023-03-07T01:28:42.928Z,83.30
2023-03-07T01:31:09.885Z,83.85
2023-03-07T01:33:36.762Z,85.27
2023-03-07T01:36:04.003Z,84.19
2023-03-07T01:38:34.056Z,85.42
2023-03-07T01:41:02.133Z,85.96
2023-03-07T01:43:34.007Z,85.53
2023-03-07T01:46:18.979Z,85.15
2023-03-07T01:48:51.308Z,82.89
2023-03-07T01:51:18.403Z,83.78
2023-03-07T01:53:45.972Z,83.30
2023-03-07T01:56:12.566Z,85.62
2023-03-07T01:58:39.604Z,85.84
2023-03-07T02:01:08.988Z,85.24
2023-03-07T02:03:54.162Z,85.10
2023-03-07T02:06:20.881Z,84.30
2023-03-07T02:08:49.410Z,83.72
2023-03-07T02:11:16.568Z,85.10
2023-03-07T02:13:43.145Z,86.35
2023-03-07T02:16:09.769Z,86.01
2023-03-07T02:18:43.142Z,83.20
2023-03-07T02:21:25.566Z,85.56
2023-03-07T02:24:12.263Z,84.03
2023-03-07T02:26:49.766Z,85.88
2023-03-07T02:29:16.500Z,83.41
2023-03-07T02:31:42.975Z,85.50
2023-03-07T02:34:25.649Z,85.41
2023-03-07T02:36:56.573Z,85.28
2023-03-07T02:39:24.682Z,86.17
2023-03-07T02:41:53.313Z,86.14
2023-03-07T02:44:19.802Z,85.85
2023-03-07T02:46:46.541Z,83.33
2023-03-07T02:49:13.116Z,83.41
2023-03-07T02:51:40.059Z,85.08
2023-03-07T02:54:06.778Z,83.24
2023-03-07T02:56:33.252Z,84.08
2023-03-07T02:58:59.702Z,84.21
2023-03-07T03:01:26.309Z,85.61
2023-03-07T03:03:52.837Z,85.42
2023-03-07T03:06:19.303Z,84.72
2023-03-07T03:08:45.812Z,85.47
2023-03-07T03:11:12.268Z,84.88
2023-03-07T03:13:39.154Z,86.00
2023-03-07T03:16:05.950Z,87.06
2023-03-07T03:18:32.517Z,86.18
2023-03-07T03:20:59.235Z,84.14
2023-03-07T03:23:28.887Z,86.11
2023-03-07T03:26:00.299Z,87.03
2023-03-07T03:28:26.853Z,83.28
2023-03-07T03:31:05.774Z,85.07
2023-03-07T03:33:32.541Z,86.34
2023-03-07T03:36:01.795Z,86.20
2023-03-07T03:38:28.269Z,85.34
2023-03-07T03:40:54.720Z,85.23
2023-03-07T03:43:21.164Z,86.35
2023-03-07T03:45:57.690Z,84.80
2023-03-07T03:48:25.100Z,84.33
2023-03-07T03:50:51.583Z,85.43
2023-03-07T03:53:18.055Z,86.02
2023-03-07T03:55:44.538Z,85.42
2023-03-07T03:58:11.208Z,84.17
2023-03-07T04:00:37.710Z,85.26
2023-03-07T04:03:04.736Z,84.43
2023-03-07T04:05:33.673Z,85.72
2023-03-07T04:08:00.665Z,84.81
2023-03-07T04:10:27.113Z,85.49
2023-03-07T04:12:53.568Z,85.19
2023-03-07T04:15:20.024Z,85.31
2023-03-07T04:17:46.584Z,84.80
2023-03-07T04:20:17.447Z,85.88
2023-03-07T04:22:44.246Z,84.54
2023-03-07T04:25:10.832Z,84.52
2023-03-07T04:27:37.274Z,84.56
2023-03-07T04:30:04.058Z,85.13
2023-03-07T04:32:30.664Z,85.42
2023-03-07T04:34:57.155Z,84.89
2023-03-07T04:37:23.677Z,85.04
2023-03-07T04:39:50.112Z,84.45
2023-03-07T04:42:16.559Z,83.88
2023-03-07T04:44:43.005Z,84.81
2023-03-07T04:47:09.468Z,84.87
2023-03-07T04:49:36.044Z,84.43
2023-03-07T04:52:02.732Z,84.91
2023-03-07T04:54:29.169Z,82.55
2023-03-07T04:56:55.625Z,83.55
2023-03-07T04:59:22.065Z,83.69
2023-03-07T05:01:48.519Z,84.41
2023-03-07T05:04:14.975Z,82.57
2023-03-07T05:06:41.481Z,82.61
2023-03-07T05:09:08.027Z,81.92
2023-03-07T05:11:34.497Z,83.92
2023-03-07T05:14:00.941Z,81.63
2023-03-07T05:16:27.408Z,82.57
2023-03-07T05:18:53.837Z,81.15
2023-03-07T05:21:20.306Z,81.32
2023-03-07T05:23:47.400Z,80.81
2023-03-07T05:26:13.904Z,82.89
2023-03-07T05:28:40.339Z,81.72
2023-03-07T05:31:06.892Z,82.45
2023-03-07T05:33:33.406Z,80.99
2023-03-07T05:36:01.153Z,81.35
2023-03-07T05:38:28.009Z,80.50
2023-03-07T05:40:54.445Z,80.14
2023-03-07T05:43:20.931Z,80.60
2023-03-07T05:45:47.363Z,80.77
2023-03-07T05:48:13.827Z,79.60
2023-03-07T05:50:41.998Z,79.15
2023-03-07T05:53:08.871Z,78.91
2023-03-07T05:55:35.420Z,79.93
2023-03-07T05:58:01.964Z,79.30
2023-03-07T06:00:28.454Z,79.84
2023-03-07T06:02:55.050Z,78.82
2023-03-07T06:05:22.532Z,79.83
2023-03-07T06:07:50.374Z,79.45
2023-03-07T06:10:17.158Z,80.45
2023-03-07T06:12:43.628Z,78.59
2023-03-07T06:15:10.407Z,78.11
2023-03-07T06:17:37.800Z,78.05
2023-03-07T06:20:04.882Z,78.88
2023-03-07T06:22:32.159Z,79.71
2023-03-07T06:24:58.597Z,79.13
2023-03-07T06:27:25.259Z,77.85
2023-03-07T06:29:51.697Z,78.56
2023-03-07T06:32:18.200Z,80.50
2023-03-07T06:34:44.674Z,81.39
2023-03-07T06:37:11.133Z,82.66
2023-03-07T06:39:37.648Z,82.22
2023-03-07T06:42:04.293Z,83.06
2023-03-07T06:44:30.860Z,82.08
2023-03-07T06:46:57.323Z,81.04
2023-03-07T06:49:23.919Z,82.32
2023-03-07T06:51:50.439Z,80.24
2023-03-07T06:54:16.930Z,83.27
2023-03-07T06:56:45.390Z,81.18
2023-03-07T06:59:12.089Z,82.91
2023-03-07T07:01:38.723Z,82.66
2023-03-07T07:04:05.462Z,81.37
2023-03-07T07:06:31.944Z,81.96
2023-03-07T07:08:59.171Z,81.07
2023-03-07T07:11:26.449Z,81.45
2023-03-07T07:13:52.943Z,82.19
2023-03-07T07:16:19.781Z,81.01
2023-03-07T07:18:46.482Z,80.65
2023-03-07T07:21:12.995Z,81.35
2023-03-07T07:23:39.841Z,80.39
2023-03-07T07:26:06.639Z,81.06
2023-03-07T07:28:33.404Z,80.44
2023-03-07T07:31:00.168Z,80.14
2023-03-07T07:33:26.679Z,80.97
2023-03-07T07:35:53.195Z,78.82
2023-03-07T07:38:19.746Z,79.55
2023-03-07T07:40:46.211Z,77.40
2023-03-07T07:43:17.152Z,78.02
2023-03-07T07:45:43.893Z,76.97
2023-03-07T07:48:10.384Z,77.94
2023-03-07T07:50:36.923Z,77.64
2023-03-07T07:53:04.007Z,79.00
2023-03-07T07:55:30.714Z,76.37
2023-03-07T07:57:57.195Z,75.96
2023-03-07T08:00:23.891Z,74.68
2023-03-07T08:02:50.956Z,74.79
2023-03-07T08:05:21.141Z,74.14
2023-03-07T08:07:48.164Z,73.32
2023-03-07T08:10:16.030Z,72.34
2023-03-07T08:12:48.570Z,71.22
2023-03-07T08:15:17.068Z,69.99
2023-03-07T08:17:44.563Z,70.02
2023-03-07T08:20:11.329Z,69.97
2023-03-07T08:22:38.411Z,68.55
2023-03-07T08:25:05.968Z,68.05
2023-03-07T08:27:32.728Z,67.61
2023-03-07T08:29:59.998Z,68.15
2023-03-07T08:32:27.369Z,66.93
2023-03-07T08:34:53.899Z,67.91
2023-03-07T08:37:20.409Z,67.88
2023-03-07T08:39:47.643Z,68.24
2023-03-07T08:42:14.296Z,69.81
2023-03-07T08:44:40.919Z,68.74
2023-03-07T08:47:07.493Z,68.03
2023-03-07T08:49:34.100Z,66.89
2023-03-07T08:52:00.603Z,66.63
2023-03-07T08:54:27.984Z,65.07
2023-03-07T08:56:54.459Z,63.73
2023-03-07T08:59:20.911Z,63.12
2023-03-07T09:01:47.379Z,63.47
2023-03-07T09:04:13.865Z,68.20
2023-03-07T09:06:40.290Z,69.13
2023-03-07T09:09:06.742Z,68.89
2023-03-07T09:11:33.185Z,69.09
2023-03-07T09:13:59.733Z,68.74
2023-03-07T09:16:26.289Z,68.17
2023-03-07T09:18:53.014Z,67.02
2023-03-07T09:21:19.617Z,66.15
2023-03-07T09:23:46.085Z,65.73
2023-03-07T09:26:13.142Z,65.56
2023-03-07T09:28:39.652Z,67.22
2023-03-07T09:31:10.820Z,65.33
2023-03-07T09:33:37.688Z,64.68
2023-03-07T09:36:06.237Z,63.45
2023-03-07T09:38:33.006Z,63.25
2023-03-07T09:41:16.216Z,62.41
2023-03-07T09:44:00.847Z,61.87
2023-03-07T09:46:51.619Z,62.73
2023-03-07T09:49:26.180Z,61.99
2023-03-07T09:51:54.026Z,62.07
2023-03-07T09:54:22.922Z,62.61
2023-03-07T09:56:58.170Z,61.54
2023-03-07T09:59:36.963Z,62.11
2023-03-07T10:02:26.589Z,61.34
2023-03-07T10:04:58.431Z,60.73
2023-03-07T10:07:26.191Z,61.65
2023-03-07T10:09:56.911Z,64.43
2023-03-07T10:12:30.779Z,68.28
2023-03-07T10:15:30.621Z,69.26
2023-03-07T10:18:09.930Z,68.55
2023-03-07T10:20:40.295Z,65.56
2023-03-07T10:23:25.687Z,66.11
2023-03-07T10:26:10.662Z,68.08
2023-03-07T10:28:42.257Z,66.79
2023-03-07T10:31:24.240Z,66.85
2023-03-07T10:33:52.100Z,66.44
2023-03-07T10:36:38.688Z,66.31
2023-03-07T10:39:19.527Z,62.17
2023-03-07T10:41:46.059Z,61.20
2023-03-07T10:44:17.674Z,63.73
2023-03-07T10:46:55.466Z,62.32
2023-03-07T10:49:34.753Z,61.83
2023-03-07T10:52:26.614Z,62.10
2023-03-07T10:54:53.063Z,59.89
2023-03-07T10:57:26.647Z,60.93
2023-03-07T10:59:53.212Z,60.84
2023-03-07T11:02:31.794Z,60.67
2023-03-07T11:04:59.006Z,58.85
2023-03-07T11:07:29.444Z,57.89
2023-03-07T11:09:57.757Z,56.49
2023-03-07T11:12:26.152Z,55.54
2023-03-07T11:14:52.634Z,52.31
2023-03-07T11:17:23.144Z,49.54
2023-03-07T11:19:57.867Z,49.49
2023-03-07T11:22:28.494Z,48.56
2023-03-07T11:25:10.259Z,47.71
2023-03-07T11:27:50.294Z,46.58
2023-03-07T11:30:18.120Z,48.09
2023-03-07T11:33:08.139Z,49.14
2023-03-07T11:35:46.831Z,50.32
2023-03-07T11:38:36.891Z,50.97
2023-03-07T11:41:28.565Z,48.15
2023-03-07T11:44:23.646Z,47.08
2023-03-07T11:46:57.003Z,46.96
2023-03-07T11:49:46.606Z,46.37
2023-03-07T11:52:50.679Z,44.64
2023-03-07T11:55:24.212Z,46.67
2023-03-07T11:58:12.438Z,48.21
2023-03-07T12:01:13.186Z,47.38
2023-03-07T12:03:55.835Z,46.06
2023-03-07T12:07:03.266Z,45.91
2023-03-07T12:09:36.145Z,45.87
2023-03-07T12:12:28.843Z,45.08
2023-03-07T12:15:03.836Z,45.13
2023-03-07T12:17:43.597Z,44.33
2023-03-07T12:20:16.422Z,46.56
2023-03-07T12:23:01.001Z,44.54
2023-03-07T12:25:33.999Z,42.98
2023-03-07T12:28:03.419Z,43.82
2023-03-07T12:30:35.850Z,43.64
2023-03-07T12:33:03.009Z,44.10
2023-03-07T12:35:35.626Z,44.03
2023-03-07T12:38:13.197Z,44.20
2023-03-07T12:40:49.229Z,45.22
2023-03-07T12:43:21.750Z,45.02
2023-03-07T12:45:52.509Z,46.57
2023-03-07T12:48:24.235Z,45.75
2023-03-07T12:50:53.264Z,44.52
2023-03-07T12:53:22.536Z,45.13
2023-03-07T12:55:56.542Z,44.80
2023-03-07T12:58:32.268Z,45.76
2023-03-07T13:01:02.727Z,45.25
2023-03-07T13:03:43.567Z,43.31
2023-03-07T13:06:16.108Z,44.27
2023-03-07T13:08:45.151Z,44.67
2023-03-07T13:11:32.495Z,44.58
2023-03-07T13:14:03.581Z,44.22
2023-03-07T13:16:45.419Z,43.04
2023-03-07T13:19:30.637Z,43.38
2023-03-07T13:21:58.022Z,44.17
2023-03-07T13:24:39.973Z,43.58
2023-03-07T13:27:21.194Z,44.41
2023-03-07T13:30:12.657Z,44.73
2023-03-07T13:32:50.972Z,43.97
2023-03-07T13:35:46.390Z,44.89
2023-03-07T13:38:46.607Z,44.07
2023-03-07T13:41:13.645Z,44.48
2023-03-07T13:43:46.127Z,43.07
2023-03-07T13:46:24.751Z,41.87
2023-03-07T13:48:54.070Z,42.76
2023-03-07T13:51:20.889Z,42.95
2023-03-07T13:53:52.975Z,43.19
2023-03-07T13:56:28.943Z,42.06
2023-03-07T13:59:24.621Z,42.33
2023-03-07T14:02:07.308Z,41.72
2023-03-07T14:04:46.584Z,41.76
2023-03-07T14:07:32.367Z,43.11
2023-03-07T14:10:21.887Z,43.54
2023-03-07T14:13:11.137Z,42.62
2023-03-07T14:15:51.434Z,43.40
2023-03-07T14:18:45.882Z,45.74
2023-03-07T14:21:31.129Z,49.23
2023-03-07T14:24:12.419Z,49.65
2023-03-07T14:26:41.601Z,50.75
2023-03-07T14:29:22.261Z,51.46
2023-03-07T14:31:50.864Z,50.77
2023-03-07T14:34:21.913Z,50.63
2023-03-07T14:37:00.053Z,48.94
2023-03-07T14:39:40.357Z,50.41
2023-03-07T14:42:28.621Z,49.02
2023-03-07T14:44:55.100Z,47.40
2023-03-07T14:47:42.949Z,47.93
2023-03-07T14:50:12.149Z,47.74
2023-03-07T14:52:38.917Z,49.57
2023-03-07T14:55:06.588Z,52.06
2023-03-07T14:57:36.442Z,52.26
2023-03-07T15:00:12.576Z,52.35
2023-03-07T15:03:00.877Z,51.35
2023-03-07T15:05:33.028Z,51.01
2023-03-07T15:07:59.826Z,52.13
2023-03-07T15:10:40.757Z,52.49
2023-03-07T15:13:13.753Z,53.84
2023-03-07T15:15:45.573Z,53.82
2023-03-07T15:18:29.265Z,54.50
2023-03-07T15:20:56.927Z,55.63
2023-03-07T15:23:27.776Z,54.75
2023-03-07T15:26:01.943Z,54.86
2023-03-07T15:28:32.600Z,55.43
2023-03-07T15:30:59.173Z,54.99
2023-03-07T15:33:27.737Z,54.43
2023-03-07T15:36:12.545Z,53.72
2023-03-07T15:38:49.348Z,53.49
2023-03-07T15:41:29.684Z,52.05
2023-03-07T15:44:12.158Z,51.73
2023-03-07T15:46:59.685Z,51.67
2023-03-07T15:49:35.260Z,51.50
2023-03-07T15:52:01.800Z,51.15
2023-03-07T15:54:28.207Z,50.29
2023-03-07T15:57:00.816Z,49.40
2023-03-07T15:59:33.374Z,49.49
2023-03-07T16:02:46.021Z,48.88
2023-03-07T16:05:24.314Z,50.69
2023-03-07T16:07:52.421Z,50.50
2023-03-07T16:10:19.177Z,50.41
2023-03-07T16:12:46.586Z,51.31
2023-03-07T16:15:22.416Z,51.00
2023-03-07T16:17:53.311Z,51.23
2023-03-07T16:20:22.023Z,51.83
2023-03-07T16:22:48.575Z,51.71
2023-03-07T16:25:15.954Z,51.68
2023-03-07T16:27:57.626Z,51.71
2023-03-07T16:30:28.890Z,52.68
2023-03-07T16:32:55.753Z,51.44
2023-03-07T16:35:28.040Z,52.43
2023-03-07T16:37:55.253Z,52.25
2023-03-07T16:40:22.909Z,52.84
2023-03-07T16:42:52.833Z,52.77
2023-03-07T16:45:21.675Z,52.66
2023-03-07T16:47:51.154Z,52.80
2023-03-07T16:50:20.089Z,53.66
2023-03-07T16:52:46.672Z,53.45
2023-03-07T16:55:14.504Z,53.42
2023-03-07T16:57:45.853Z,54.43
2023-03-07T17:00:20.675Z,53.15
2023-03-07T17:02:47.825Z,54.28
2023-03-07T17:05:16.058Z,54.53
2023-03-07T17:07:42.632Z,54.17
2023-03-07T17:10:10.701Z,53.91
2023-03-07T17:12:37.195Z,54.06
2023-03-07T17:15:03.998Z,55.01
2023-03-07T17:17:33.349Z,54.94
2023-03-07T17:20:00.289Z,53.82
2023-03-07T17:22:26.827Z,53.63
2023-03-07T17:24:53.320Z,53.51
2023-03-07T17:27:20.015Z,53.62
2023-03-07T17:29:52.788Z,54.39
2023-03-07T17:32:19.305Z,54.16
2023-03-07T17:34:46.218Z,54.28
2023-03-07T17:37:12.742Z,54.21
2023-03-07T17:39:40.002Z,54.43
2023-03-07T17:42:06.880Z,55.27
2023-03-07T17:44:33.442Z,55.15
2023-03-07T17:47:00.327Z,54.54
2023-03-07T17:49:33.266Z,53.66
2023-03-07T17:51:59.856Z,53.96
2023-03-07T17:54:26.368Z,55.64
2023-03-07T17:56:52.838Z,54.61
2023-03-07T17:59:19.356Z,55.29
2023-03-07T18:01:45.918Z,53.90
2023-03-07T18:04:12.464Z,53.95
2023-03-07T18:06:40.950Z,53.85
2023-03-07T18:09:07.608Z,54.04
2023-03-07T18:11:34.403Z,54.38
2023-03-07T18:14:01.625Z,55.55
2023-03-07T18:16:28.227Z,55.27
2023-03-07T18:19:00.548Z,56.02
2023-03-07T18:21:30.444Z,55.30
2023-03-07T18:23:57.593Z,55.64
2023-03-07T18:26:24.995Z,55.26
2023-03-07T18:28:54.587Z,55.50
2023-03-07T18:31:28.238Z,55.58
2023-03-07T18:33:55.203Z,56.23
2023-03-07T18:36:23.827Z,55.82
2023-03-07T18:38:50.871Z,53.82
2023-03-07T18:41:20.626Z,53.69
2023-03-07T18:43:47.470Z,54.48
2023-03-07T18:46:18.715Z,54.59
2023-03-07T18:48:45.534Z,54.78
2023-03-07T18:51:14.662Z,55.00
2023-03-07T18:53:41.401Z,54.30
2023-03-07T18:56:10.391Z,54.30
2023-03-07T18:58:36.908Z,54.83
2023-03-07T19:01:12.530Z,54.58
2023-03-07T19:03:39.738Z,55.29
2023-03-07T19:06:07.007Z,56.25
2023-03-07T19:08:33.745Z,55.62
2023-03-07T19:11:05.046Z,56.85
2023-03-07T19:13:32.397Z,55.92
2023-03-07T19:16:06.006Z,56.03
2023-03-07T19:18:33.451Z,55.39
2023-03-07T19:21:00.094Z,55.84
2023-03-07T19:23:26.698Z,55.55
2023-03-07T19:25:53.169Z,55.86
2023-03-07T19:28:19.735Z,55.45
2023-03-07T19:30:46.223Z,55.78
2023-03-07T19:33:12.659Z,55.73
2023-03-07T19:35:39.772Z,55.38
2023-03-07T19:38:06.349Z,56.04
2023-03-07T19:40:32.865Z,58.10
2023-03-07T19:42:59.366Z,57.96
2023-03-07T19:45:27.240Z,58.86
2023-03-07T19:47:54.534Z,58.82
2023-03-07T19:50:21.418Z,58.94
2023-03-07T19:52:47.897Z,58.99
2023-03-07T19:55:14.669Z,59.57
2023-03-07T19:57:41.602Z,58.43
2023-03-07T20:00:08.947Z,58.52
2023-03-07T20:02:35.441Z,58.64
2023-03-07T20:05:02.051Z,58.62
2023-03-07T20:07:29.671Z,58.88
2023-03-07T20:09:56.147Z,58.39
2023-03-07T20:12:22.813Z,58.99
2023-03-07T20:14:49.329Z,58.53
2023-03-07T20:17:15.917Z,59.47
2023-03-07T20:19:42.387Z,59.90
2023-03-07T20:22:08.830Z,59.72
2023-03-07T20:24:36.190Z,59.82
2023-03-07T20:27:02.786Z,59.96
2023-03-07T20:29:29.318Z,59.93
2023-03-07T20:31:55.791Z,59.62
2023-03-07T20:34:25.353Z,61.72
2023-03-07T20:36:52.055Z,61.06
2023-03-07T20:39:18.695Z,60.85
2023-03-07T20:41:45.225Z,61.47
2023-03-07T20:44:14.046Z,62.55
2023-03-07T20:46:41.321Z,61.73
2023-03-07T20:49:08.039Z,61.59
2023-03-07T20:51:36.127Z,60.99
2023-03-07T20:54:04.892Z,61.40
2023-03-07T20:56:33.103Z,60.74
2023-03-07T20:59:00.200Z,60.59
2023-03-07T21:01:29.240Z,60.92
2023-03-07T21:03:56.107Z,61.31
2023-03-07T21:06:22.625Z,61.77
2023-03-07T21:08:49.140Z,62.64
2023-03-07T21:11:20.419Z,61.85
2023-03-07T21:13:48.258Z,63.02
2023-03-07T21:16:20.380Z,63.24
2023-03-07T21:18:47.339Z,63.50
2023-03-07T21:21:16.523Z,63.56
2023-03-07T21:23:43.137Z,63.53
2023-03-07T21:26:18.054Z,64.73
2023-03-07T21:28:44.795Z,64.10
2023-03-07T21:31:16.831Z,63.59
2023-03-07T21:33:45.575Z,64.57
2023-03-07T21:36:14.467Z,64.13
2023-03-07T21:38:41.674Z,65.39
2023-03-07T21:41:08.474Z,65.20
2023-03-07T21:43:34.959Z,64.94
2023-03-07T21:46:06.315Z,64.92
2023-03-07T21:48:33.194Z,64.17
2023-03-07T21:51:01.136Z,65.05
2023-03-07T21:53:27.971Z,64.30
2023-03-07T21:55:57.640Z,65.94
2023-03-07T21:58:24.595Z,65.06
2023-03-07T22:00:51.821Z,64.81
2023-03-07T22:03:18.923Z,65.49
2023-03-07T22:05:45.875Z,66.74
2023-03-07T22:08:12.623Z,66.65
2023-03-07T22:10:39.224Z,67.04
2023-03-07T22:13:06.874Z,65.70
2023-03-07T22:15:33.641Z,66.27
2023-03-07T22:18:00.171Z,65.50
2023-03-07T22:20:26.729Z,66.45
2023-03-07T22:22:53.739Z,66.22
2023-03-07T22:25:20.297Z,65.06
2023-03-07T22:27:46.730Z,65.72
2023-03-07T22:30:13.582Z,64.77
2023-03-07T22:32:40.139Z,65.72
2023-03-07T22:35:07.107Z,64.26
2023-03-07T22:37:33.598Z,64.90
2023-03-07T22:40:00.265Z,64.84
2023-03-07T22:42:26.842Z,64.38
2023-03-07T22:44:54.614Z,63.82
2023-03-07T22:47:21.323Z,64.75
2023-03-07T22:49:48.391Z,65.55
2023-03-07T22:52:14.866Z,65.21
2023-03-07T22:54:43.480Z,64.28
2023-03-07T22:57:09.954Z,65.65
2023-03-07T22:59:36.418Z,65.80
2023-03-07T23:02:02.924Z,65.28
2023-03-07T23:04:30.471Z,64.66
2023-03-07T23:06:57.270Z,65.91
2023-03-07T23:09:23.724Z,65.45
2023-03-07T23:11:50.321Z,66.36
2023-03-07T23:14:16.785Z,66.25
2023-03-07T23:16:43.337Z,66.45
2023-03-07T23:19:09.799Z,67.11
2023-03-07T23:21:37.149Z,67.01
2023-03-07T23:24:04.125Z,67.08
2023-03-07T23:26:36.051Z,66.81
2023-03-07T23:29:04.364Z,66.97
2023-03-07T23:31:33.482Z,66.02
2023-03-07T23:34:01.950Z,66.84
2023-03-07T23:36:30.402Z,67.61
2023-03-07T23:38:57.986Z,67.48
2023-03-07T23:41:24.951Z,69.11
2023-03-07T23:43:54.753Z,69.03
2023-03-07T23:46:21.410Z,68.82
2023-03-07T23:48:47.976Z,67.91
2023-03-07T23:51:15.887Z,67.51
2023-03-07T23:53:42.566Z,68.13
2023-03-07T23:56:10.613Z,68.08
2023-03-07T23:58:37.136Z,69.12
